Mise à jour: Mardi, 31 août 2010, 04h30 (UTC+4)
Trajectoire complète du système 12 12 CYCLONE tropical intense GELANE
Date et Heure
en UTC
(soit H+4
à La Réunion)
Longit.


(°Est)
Latitude


(°Sud)
Intensité
Dvorak
analysée
(1.0/8.0)

Type de système
analysé

Pression
minimale
estimée
(hPa)
Vent moyen
sur 10'
maxi estimé
(noeud,km/h)
Rafales
maximales
associées
(noeud,km/h)
15/02/2010 00:00 58.20 10.03 1.5 Perturbation tropicale 1004 20 kt, 37 km/h 28 kt, 52 km/h
15/02/2010 06:00 58.53 9.73 1.5 Perturbation tropicale 1003 23 kt, 42 km/h 32 kt, 60 km/h
15/02/2010 12:00 58.81 9.63 2.0 Perturbation tropicale 1002 25 kt, 46 km/h 35 kt, 65 km/h
15/02/2010 18:00 59.10 10.85 2.0 Perturbation tropicale 1001 25 kt, 46 km/h 35 kt, 65 km/h
16/02/2010 00:00 59.80 11.51 2.5 DEPRESSION tropicale 998 30 kt, 55 km/h 42 kt, 78 km/h
16/02/2010 06:00 60.12 11.94 2.5 TEMPETE tropicale moderée 995 35 kt, 64 km/h 49 kt, 91 km/h
16/02/2010 12:00 60.27 12.47 3.0 TEMPETE tropicale moderée 992 40 kt, 74 km/h 56 kt, 104 km/h
16/02/2010 18:00 60.46 12.89 3.5 Forte TEMPETE tropicale 986 50 kt, 92 km/h 70 kt, 130 km/h
17/02/2010 00:00 60.73 13.21 4.0 Forte TEMPETE tropicale 977 60 kt, 111 km/h 84 kt, 156 km/h
17/02/2010 06:00 61.17 13.69 4.5 CYCLONE tropical 970 70 kt, 129 km/h 98 kt, 182 km/h
17/02/2010 12:00 61.66 14.18 4.5 CYCLONE tropical 970 70 kt, 129 km/h 98 kt, 182 km/h
17/02/2010 18:00 61.95 14.33 4.5 CYCLONE tropical 975 65 kt, 120 km/h 91 kt, 169 km/h
18/02/2010 00:00 62.03 14.55 4.5 CYCLONE tropical 975 65 kt, 120 km/h 91 kt, 169 km/h
18/02/2010 06:00 62.09 14.90 4.5 CYCLONE tropical 970 70 kt, 129 km/h 98 kt, 182 km/h
18/02/2010 12:00 62.21 15.29 4.5 CYCLONE tropical 970 70 kt, 129 km/h 98 kt, 182 km/h
18/02/2010 18:00 62.23 15.78 5.0 CYCLONE tropical 965 75 kt, 138 km/h 105 kt, 195 km/h
19/02/2010 00:00 62.19 16.20 5.0 CYCLONE tropical 960 80 kt, 148 km/h 112 kt, 208 km/h
19/02/2010 06:00 62.20 16.70 5.5 CYCLONE tropical intense 945 95 kt, 175 km/h 133 kt, 248 km/h
19/02/2010 12:00 62.10 17.40 6.5 CYCLONE tropical intense 930 110 kt, 203 km/h 155 kt, 287 km/h
19/02/2010 18:00 61.90 17.89 6.0 CYCLONE tropical intense 940 100 kt, 185 km/h 141 kt, 261 km/h
20/02/2010 00:00 61.65 18.31 5.5 CYCLONE tropical intense 950 90 kt, 166 km/h 126 kt, 235 km/h
20/02/2010 06:00 61.60 18.65 5.0 CYCLONE tropical 965 75 kt, 138 km/h 105 kt, 195 km/h
20/02/2010 12:00 61.64 19.14 4.0 Forte TEMPETE tropicale 980 57 kt, 105 km/h 80 kt, 148 km/h
20/02/2010 18:00 61.67 19.86 4.0 Forte TEMPETE tropicale 983 55 kt, 101 km/h 77 kt, 143 km/h
21/02/2010 00:00 61.94 20.67 4.0 Forte TEMPETE tropicale 983 55 kt, 101 km/h 77 kt, 143 km/h
21/02/2010 06:00 61.81 20.92 3.5 Forte TEMPETE tropicale 987 48 kt, 88 km/h 67 kt, 125 km/h
21/02/2010 12:00 61.30 20.70 2.5 DEPRESSION tropicale 997 33 kt, 61 km/h 46 kt, 86 km/h
21/02/2010 18:00 60.52 20.07 2.0 Perturbation tropicale 1002 25 kt, 46 km/h 35 kt, 65 km/h
22/02/2010 00:00 60.19 19.91 2.0 Perturbation tropicale 1003 25 kt, 46 km/h 35 kt, 65 km/h
22/02/2010 06:00 60.11 20.30   DEPRESSION se comblant 1005 20 kt, 37 km/h 28 kt, 52 km/h
22/02/2010 12:00 60.05 21.20   DEPRESSION se comblant 1006 20 kt, 37 km/h 28 kt, 52 km/h
22/02/2010 18:00 59.32 21.74   DEPRESSION se comblant 1006 20 kt, 37 km/h 28 kt, 52 km/h
23/02/2010 00:00 58.19 22.67   DEPRESSION se comblant 1006 20 kt, 37 km/h 28 kt, 52 km/h
23/02/2010 06:00 57.37 23.27   DEPRESSION se comblant 1007 20 kt, 37 km/h 28 kt, 52 km/h
23/02/2010 12:00 56.57 23.10   DEPRESSION se comblant 1007 20 kt, 37 km/h 28 kt, 52 km/h
23/02/2010 18:00 55.78 22.75   DEPRESSION se comblant 1007 20 kt, 37 km/h 28 kt, 52 km/h
24/02/2010 00:00 54.87 22.52   DEPRESSION se comblant 1007 20 kt, 37 km/h 28 kt, 52 km/h
24/02/2010 06:00 53.75 22.50   DEPRESSION se comblant 1007 20 kt, 37 km/h 28 kt, 52 km/h
24/02/2010 12:00 53.27 22.51   DEPRESSION se comblant 1007 25 kt, 46 km/h 35 kt, 65 km/h
24/02/2010 18:00 52.73 22.51   DEPRESSION se comblant 1007 25 kt, 46 km/h 35 kt, 65 km/h
25/02/2010 00:00 52.16 22.51   DEPRESSION se comblant 1007 20 kt, 37 km/h 28 kt, 52 km/h
25/02/2010 06:00 51.60 22.52   DEPRESSION se comblant 1008 20 kt, 37 km/h 28 kt, 52 km/h